This is the latest recevied weather packets stored in our database for station/object KC4KQE. If no packets are shown the sender has not sent any weather packets the latest 10 day(s).
| Time | Temp. | Humidity | Pressure | Rain* | Wind** | Luminosity | Snow |
|---|---|---|---|---|---|---|---|
| 1778008457 | 22.22° C | 45% | 1011.9 hPa | 0 mm | - | 397 W/m² | - |
| 1778008156 | 21.67° C | 47% | 1012 hPa | 0 mm | - | 999 W/m² | - |
| 1778007856 | 21.67° C | 48% | 1012 hPa | 0 mm | - | 483 W/m² | - |
| 1778007556 | 21.11° C | 50% | 1012 hPa | 0 mm | - | 272 W/m² | - |
| 1778007256 | 21.11° C | 50% | 1012.2 hPa | 0 mm | - | 287 W/m² | - |
| 1778006956 | 21.11° C | 52% | 1012.2 hPa | 0 mm | - | 315 W/m² | - |
| 1778006657 | 21.11° C | 49% | 1012.2 hPa | 0 mm | - | 313 W/m² | - |
| 1778006356 | 21.67° C | 50% | 1012.2 hPa | 0 mm | - | 329 W/m² | - |
| 1778006056 | 21.11° C | 50% | 1012.1 hPa | 0 mm | - | 318 W/m² | - |
| 1778005756 | 20.56° C | 52% | 1012.2 hPa | 0 mm | - | 330 W/m² | - |
| 1778005456 | 20.56° C | 55% | 1012.2 hPa | 0 mm | - | 290 W/m² | - |
| 1778005157 | 20.56° C | 52% | 1012.3 hPa | 0 mm | - | 343 W/m² | - |
| 1778004856 | 20.56° C | 53% | 1012.3 hPa | 0 mm | - | 457 W/m² | - |
| 1778004556 | 20° C | 60% | 1012.3 hPa | 0 mm | - | 403 W/m² | - |
| 1778004256 | 19.44° C | 63% | 1012.3 hPa | 0 mm | - | 404 W/m² | - |
| 1778003956 | 18.89° C | 66% | 1012.4 hPa | 0 mm | - | 385 W/m² | - |
| 1778003657 | 18.89° C | 66% | 1012.5 hPa | 0 mm | - | 269 W/m² | - |
| 1778003356 | 19.44° C | 60% | 1012.4 hPa | 0 mm | - | 144 W/m² | - |
| 1778003056 | 20° C | 59% | 1012.3 hPa | 0 mm | - | 137 W/m² | - |
| 1778002756 | 20° C | 59% | 1012.4 hPa | 0 mm | - | 213 W/m² | - |
| 1778002456 | 20° C | 58% | 1012.3 hPa | 0 mm | - | 316 W/m² | - |
| 1778002156 | 20.56° C | 60% | 1012.3 hPa | 0 mm | - | 373 W/m² | - |
| 1778001856 | 20° C | 60% | 1012.3 hPa | 0 mm | - | 353 W/m² | - |
| 1778001556 | 20° C | 61% | 1012.3 hPa | 0 mm | - | 380 W/m² | - |
| 1778001256 | 20° C | 61% | 1012.3 hPa | 0 mm | - | 336 W/m² | - |
* Rain latest hour (hover to see other rain measurements)
** Current wind speed in m/s (hover to see current wind gust speed)